sensor_id;sensor_type;location;lat;lon;timestamp;pressure;altitude;pressure_sealevel;temperature;humidity
49759;BME280;35654;46.080;11.118;2022-08-19T00:01:50;98948.38;;;20.00;100.00
49759;BME280;35654;46.080;11.118;2022-08-19T00:04:19;98941.22;;;19.99;100.00
49759;BME280;35654;46.080;11.118;2022-08-19T00:06:46;98933.59;;;19.96;100.00
49759;BME280;35654;46.080;11.118;2022-08-19T00:09:14;98926.88;;;19.97;100.00
49759;BME280;35654;46.080;11.118;2022-08-19T00:11:40;98923.81;;;20.02;100.00
49759;BME280;35654;46.080;11.118;2022-08-19T00:14:07;98920.22;;;20.02;100.00
49759;BME280;35654;46.080;11.118;2022-08-19T00:16:33;98915.69;;;19.94;100.00
49759;BME280;35654;46.080;11.118;2022-08-19T00:18:59;98900.88;;;19.86;100.00
49759;BME280;35654;46.080;11.118;2022-08-19T00:21:26;98911.69;;;19.91;100.00
49759;BME280;35654;46.080;11.118;2022-08-19T00:23:52;98923.91;;;19.87;100.00
49759;BME280;35654;46.080;11.118;2022-08-19T00:26:18;98933.41;;;19.86;100.00
49759;BME280;35654;46.080;11.118;2022-08-19T00:28:44;98928.97;;;19.81;100.00
49759;BME280;35654;46.080;11.118;2022-08-19T00:31:10;98929.75;;;19.82;100.00
49759;BME280;35654;46.080;11.118;2022-08-19T00:33:36;98936.88;;;19.79;100.00
49759;BME280;35654;46.080;11.118;2022-08-19T00:36:04;98941.00;;;19.89;100.00
49759;BME280;35654;46.080;11.118;2022-08-19T00:38:31;98943.06;;;19.92;100.00
49759;BME280;35654;46.080;11.118;2022-08-19T00:40:57;98945.63;;;19.81;100.00
49759;BME280;35654;46.080;11.118;2022-08-19T00:43:26;98926.59;;;19.83;100.00
49759;BME280;35654;46.080;11.118;2022-08-19T00:45:52;98921.44;;;19.82;100.00
49759;BME280;35654;46.080;11.118;2022-08-19T00:48:18;98904.38;;;19.83;100.00
49759;BME280;35654;46.080;11.118;2022-08-19T00:50:46;98890.25;;;19.92;100.00
49759;BME280;35654;46.080;11.118;2022-08-19T00:53:15;98883.97;;;19.95;100.00
49759;BME280;35654;46.080;11.118;2022-08-19T00:55:45;98875.16;;;19.70;100.00
49759;BME280;35654;46.080;11.118;2022-08-19T00:58:15;98859.88;;;19.60;100.00
49759;BME280;35654;46.080;11.118;2022-08-19T01:00:42;98851.56;;;19.60;100.00
49759;BME280;35654;46.080;11.118;2022-08-19T01:03:11;98846.06;;;19.64;100.00
49759;BME280;35654;46.080;11.118;2022-08-19T01:05:40;98823.47;;;19.65;100.00
49759;BME280;35654;46.080;11.118;2022-08-19T01:08:07;98783.13;;;19.71;100.00
49759;BME280;35654;46.080;11.118;2022-08-19T01:10:54;98759.59;;;19.65;100.00
49759;BME280;35654;46.080;11.118;2022-08-19T01:13:23;98769.53;;;19.66;100.00
49759;BME280;35654;46.080;11.118;2022-08-19T01:15:56;98770.75;;;19.46;100.00
49759;BME280;35654;46.080;11.118;2022-08-19T01:18:23;98780.38;;;19.33;100.00
49759;BME280;35654;46.080;11.118;2022-08-19T01:20:51;98785.50;;;19.31;100.00
49759;BME280;35654;46.080;11.118;2022-08-19T01:23:19;98775.56;;;19.30;100.00
49759;BME280;35654;46.080;11.118;2022-08-19T01:25:50;98754.97;;;19.31;100.00
49759;BME280;35654;46.080;11.118;2022-08-19T01:28:24;98749.84;;;19.33;100.00
49759;BME280;35654;46.080;11.118;2022-08-19T01:30:51;98760.22;;;19.36;100.00
49759;BME280;35654;46.080;11.118;2022-08-19T01:33:18;98771.31;;;19.36;100.00
49759;BME280;35654;46.080;11.118;2022-08-19T01:35:45;98761.09;;;19.40;100.00
49759;BME280;35654;46.080;11.118;2022-08-19T01:38:19;98765.38;;;19.38;100.00
49759;BME280;35654;46.080;11.118;2022-08-19T01:40:45;98755.00;;;19.35;100.00
49759;BME280;35654;46.080;11.118;2022-08-19T01:43:10;98751.88;;;19.36;100.00
49759;BME280;35654;46.080;11.118;2022-08-19T01:45:36;98705.84;;;19.35;100.00
49759;BME280;35654;46.080;11.118;2022-08-19T01:48:05;98711.78;;;19.34;100.00
49759;BME280;35654;46.080;11.118;2022-08-19T01:50:32;98759.50;;;19.39;100.00
49759;BME280;35654;46.080;11.118;2022-08-19T01:52:59;98850.84;;;19.44;100.00
49759;BME280;35654;46.080;11.118;2022-08-19T01:55:25;98898.19;;;19.51;100.00
49759;BME280;35654;46.080;11.118;2022-08-19T01:57:53;98887.81;;;19.67;100.00
49759;BME280;35654;46.080;11.118;2022-08-19T02:00:23;98869.81;;;19.81;100.00
49759;BME280;35654;46.080;11.118;2022-08-19T02:02:49;98843.75;;;19.89;100.00
49759;BME280;35654;46.080;11.118;2022-08-19T02:05:14;98819.31;;;19.98;100.00
49759;BME280;35654;46.080;11.118;2022-08-19T02:07:41;98803.31;;;19.91;100.00
49759;BME280;35654;46.080;11.118;2022-08-19T02:10:12;98789.66;;;19.83;100.00
49759;BME280;35654;46.080;11.118;2022-08-19T02:12:38;98799.94;;;19.79;100.00
49759;BME280;35654;46.080;11.118;2022-08-19T02:15:04;98824.19;;;19.82;100.00
49759;BME280;35654;46.080;11.118;2022-08-19T02:17:31;98822.97;;;19.79;100.00
49759;BME280;35654;46.080;11.118;2022-08-19T02:19:57;98821.41;;;19.82;100.00
49759;BME280;35654;46.080;11.118;2022-08-19T02:22:24;98809.81;;;19.76;100.00
49759;BME280;35654;46.080;11.118;2022-08-19T02:24:51;98788.50;;;19.84;100.00
49759;BME280;35654;46.080;11.118;2022-08-19T02:27:17;98775.03;;;19.86;100.00
49759;BME280;35654;46.080;11.118;2022-08-19T02:29:42;98753.50;;;19.79;100.00
49759;BME280;35654;46.080;11.118;2022-08-19T02:32:08;98735.09;;;19.71;100.00
49759;BME280;35654;46.080;11.118;2022-08-19T02:34:34;98726.72;;;19.67;100.00
49759;BME280;35654;46.080;11.118;2022-08-19T02:36:59;98726.66;;;19.64;100.00
49759;BME280;35654;46.080;11.118;2022-08-19T02:39:25;98727.03;;;19.62;100.00
49759;BME280;35654;46.080;11.118;2022-08-19T02:41:51;98710.84;;;19.68;100.00
49759;BME280;35654;46.080;11.118;2022-08-19T02:44:17;98695.91;;;19.76;100.00
49759;BME280;35654;46.080;11.118;2022-08-19T02:46:45;98688.81;;;19.79;100.00
49759;BME280;35654;46.080;11.118;2022-08-19T02:49:11;98669.78;;;19.81;100.00
49759;BME280;35654;46.080;11.118;2022-08-19T02:51:39;98677.56;;;19.71;100.00
49759;BME280;35654;46.080;11.118;2022-08-19T02:54:07;98670.84;;;19.72;100.00
49759;BME280;35654;46.080;11.118;2022-08-19T02:56:37;98676.75;;;19.71;100.00
49759;BME280;35654;46.080;11.118;2022-08-19T02:59:03;98687.50;;;19.72;100.00
49759;BME280;35654;46.080;11.118;2022-08-19T03:01:33;98697.81;;;19.72;100.00
49759;BME280;35654;46.080;11.118;2022-08-19T03:04:02;98698.19;;;19.70;100.00
49759;BME280;35654;46.080;11.118;2022-08-19T03:06:29;98712.50;;;19.72;99.71
49759;BME280;35654;46.080;11.118;2022-08-19T03:08:56;98702.25;;;19.76;100.00
49759;BME280;35654;46.080;11.118;2022-08-19T03:11:28;98683.19;;;19.75;100.00
49759;BME280;35654;46.080;11.118;2022-08-19T03:13:55;98665.72;;;19.74;100.00
49759;BME280;35654;46.080;11.118;2022-08-19T03:16:23;98664.47;;;19.72;100.00
49759;BME280;35654;46.080;11.118;2022-08-19T03:18:50;98676.25;;;19.65;100.00
49759;BME280;35654;46.080;11.118;2022-08-19T03:21:20;98661.47;;;19.58;100.00
49759;BME280;35654;46.080;11.118;2022-08-19T03:23:46;98655.09;;;19.57;100.00
49759;BME280;35654;46.080;11.118;2022-08-19T03:26:12;98641.22;;;19.57;100.00
49759;BME280;35654;46.080;11.118;2022-08-19T03:28:39;98659.00;;;19.53;100.00
49759;BME280;35654;46.080;11.118;2022-08-19T03:31:09;98681.53;;;19.48;100.00
49759;BME280;35654;46.080;11.118;2022-08-19T03:33:36;98692.66;;;19.48;100.00
49759;BME280;35654;46.080;11.118;2022-08-19T03:38:38;98726.06;;;19.55;100.00
49759;BME280;35654;46.080;11.118;2022-08-19T03:41:06;98724.00;;;19.48;100.00
49759;BME280;35654;46.080;11.118;2022-08-19T03:43:37;98713.31;;;19.50;100.00
49759;BME280;35654;46.080;11.118;2022-08-19T03:46:14;98716.81;;;19.47;100.00
49759;BME280;35654;46.080;11.118;2022-08-19T03:48:42;98731.38;;;19.41;100.00
49759;BME280;35654;46.080;11.118;2022-08-19T03:51:18;98750.00;;;19.40;100.00
49759;BME280;35654;46.080;11.118;2022-08-19T03:53:45;98748.03;;;19.41;100.00
49759;BME280;35654;46.080;11.118;2022-08-19T03:56:11;98758.59;;;19.35;100.00
49759;BME280;35654;46.080;11.118;2022-08-19T03:58:39;98764.88;;;19.32;100.00
49759;BME280;35654;46.080;11.118;2022-08-19T04:01:13;98761.75;;;19.34;100.00
49759;BME280;35654;46.080;11.118;2022-08-19T04:03:39;98782.44;;;19.36;100.00
49759;BME280;35654;46.080;11.118;2022-08-19T04:06:18;98792.72;;;19.36;100.00
49759;BME280;35654;46.080;11.118;2022-08-19T04:08:47;98775.38;;;19.39;100.00
49759;BME280;35654;46.080;11.118;2022-08-19T04:11:15;98769.44;;;19.40;100.00
49759;BME280;35654;46.080;11.118;2022-08-19T04:13:41;98781.81;;;19.43;100.00
49759;BME280;35654;46.080;11.118;2022-08-19T04:16:08;98794.34;;;19.37;100.00
49759;BME280;35654;46.080;11.118;2022-08-19T04:18:36;98803.31;;;19.30;100.00
49759;BME280;35654;46.080;11.118;2022-08-19T04:21:02;98809.97;;;19.26;100.00
49759;BME280;35654;46.080;11.118;2022-08-19T04:23:28;98815.06;;;19.24;100.00
49759;BME280;35654;46.080;11.118;2022-08-19T04:25:54;98828.81;;;19.16;100.00
49759;BME280;35654;46.080;11.118;2022-08-19T04:28:21;98835.00;;;19.10;100.00
49759;BME280;35654;46.080;11.118;2022-08-19T04:30:49;98836.19;;;19.09;100.00
49759;BME280;35654;46.080;11.118;2022-08-19T04:33:17;98849.78;;;19.14;100.00
49759;BME280;35654;46.080;11.118;2022-08-19T04:35:47;98837.56;;;19.18;100.00
49759;BME280;35654;46.080;11.118;2022-08-19T04:38:15;98828.91;;;19.20;100.00
49759;BME280;35654;46.080;11.118;2022-08-19T04:40:42;98833.72;;;19.23;100.00
49759;BME280;35654;46.080;11.118;2022-08-19T04:43:26;98834.88;;;19.22;100.00
49759;BME280;35654;46.080;11.118;2022-08-19T04:45:52;98826.47;;;19.18;100.00
49759;BME280;35654;46.080;11.118;2022-08-19T04:48:17;98823.66;;;19.15;100.00
49759;BME280;35654;46.080;11.118;2022-08-19T04:50:55;98823.69;;;19.18;100.00
49759;BME280;35654;46.080;11.118;2022-08-19T04:53:33;98817.41;;;19.22;100.00
49759;BME280;35654;46.080;11.118;2022-08-19T04:56:02;98820.28;;;19.25;100.00
49759;BME280;35654;46.080;11.118;2022-08-19T04:58:28;98817.13;;;19.27;100.00
49759;BME280;35654;46.080;11.118;2022-08-19T05:00:54;98823.41;;;19.24;100.00
49759;BME280;35654;46.080;11.118;2022-08-19T05:03:20;98819.38;;;19.21;100.00
49759;BME280;35654;46.080;11.118;2022-08-19T05:05:47;98822.63;;;19.23;100.00
49759;BME280;35654;46.080;11.118;2022-08-19T05:08:18;98835.59;;;19.19;100.00
49759;BME280;35654;46.080;11.118;2022-08-19T05:10:48;98838.75;;;19.17;100.00
49759;BME280;35654;46.080;11.118;2022-08-19T05:13:17;98843.59;;;19.21;100.00
49759;BME280;35654;46.080;11.118;2022-08-19T05:15:43;98837.75;;;19.26;100.00
49759;BME280;35654;46.080;11.118;2022-08-19T05:18:10;98833.84;;;19.30;100.00
49759;BME280;35654;46.080;11.118;2022-08-19T05:20:54;98836.34;;;19.35;100.00
49759;BME280;35654;46.080;11.118;2022-08-19T05:23:38;98845.47;;;19.36;100.00
49759;BME280;35654;46.080;11.118;2022-08-19T05:26:04;98839.84;;;19.32;100.00
49759;BME280;35654;46.080;11.118;2022-08-19T05:28:29;98853.00;;;19.35;100.00
49759;BME280;35654;46.080;11.118;2022-08-19T05:30:55;98861.50;;;19.42;100.00
49759;BME280;35654;46.080;11.118;2022-08-19T05:33:21;98864.00;;;19.47;100.00
49759;BME280;35654;46.080;11.118;2022-08-19T05:35:47;98858.50;;;19.51;100.00
49759;BME280;35654;46.080;11.118;2022-08-19T05:38:16;98867.19;;;19.49;100.00
49759;BME280;35654;46.080;11.118;2022-08-19T05:40:41;98864.94;;;19.55;100.00
49759;BME280;35654;46.080;11.118;2022-08-19T05:43:11;98866.41;;;19.68;100.00
49759;BME280;35654;46.080;11.118;2022-08-19T05:45:40;98855.50;;;19.79;100.00
49759;BME280;35654;46.080;11.118;2022-08-19T05:48:08;98840.97;;;19.89;100.00
49759;BME280;35654;46.080;11.118;2022-08-19T05:50:37;98833.53;;;19.93;100.00
49759;BME280;35654;46.080;11.118;2022-08-19T05:53:02;98826.84;;;19.97;100.00
49759;BME280;35654;46.080;11.118;2022-08-19T05:55:28;98830.13;;;20.03;100.00
49759;BME280;35654;46.080;11.118;2022-08-19T05:57:53;98823.44;;;20.07;100.00
49759;BME280;35654;46.080;11.118;2022-08-19T06:00:18;98813.38;;;20.22;100.00
49759;BME280;35654;46.080;11.118;2022-08-19T06:02:44;98808.41;;;20.31;99.79
49759;BME280;35654;46.080;11.118;2022-08-19T06:05:10;98802.19;;;20.41;98.91
49759;BME280;35654;46.080;11.118;2022-08-19T06:07:37;98804.28;;;20.48;98.03
49759;BME280;35654;46.080;11.118;2022-08-19T06:10:05;98797.31;;;20.57;97.38
49759;BME280;35654;46.080;11.118;2022-08-19T06:12:32;98796.31;;;20.72;95.40
49759;BME280;35654;46.080;11.118;2022-08-19T06:15:00;98803.22;;;20.82;93.85
49759;BME280;35654;46.080;11.118;2022-08-19T06:17:27;98802.88;;;20.87;93.18
49759;BME280;35654;46.080;11.118;2022-08-19T06:19:56;98807.50;;;21.06;91.00
49759;BME280;35654;46.080;11.118;2022-08-19T06:22:21;98826.44;;;21.23;90.35
49759;BME280;35654;46.080;11.118;2022-08-19T06:24:47;98821.31;;;21.25;89.65
49759;BME280;35654;46.080;11.118;2022-08-19T06:27:12;98820.53;;;21.61;88.95
49759;BME280;35654;46.080;11.118;2022-08-19T06:29:38;98820.97;;;21.96;87.03
49759;BME280;35654;46.080;11.118;2022-08-19T06:32:04;98824.66;;;22.08;84.07
49759;BME280;35654;46.080;11.118;2022-08-19T06:34:32;98813.63;;;22.25;82.49
49759;BME280;35654;46.080;11.118;2022-08-19T06:36:59;98811.72;;;22.33;82.85
49759;BME280;35654;46.080;11.118;2022-08-19T06:39:31;98811.00;;;22.43;82.50
49759;BME280;35654;46.080;11.118;2022-08-19T06:42:00;98810.56;;;22.37;82.55
49759;BME280;35654;46.080;11.118;2022-08-19T06:44:28;98812.63;;;22.47;83.07
49759;BME280;35654;46.080;11.118;2022-08-19T06:46:54;98807.47;;;22.49;83.05
49759;BME280;35654;46.080;11.118;2022-08-19T06:49:21;98807.84;;;22.48;83.12
49759;BME280;35654;46.080;11.118;2022-08-19T06:51:48;98809.06;;;22.50;82.51
49759;BME280;35654;46.080;11.118;2022-08-19T06:54:14;98820.34;;;22.17;84.19
49759;BME280;35654;46.080;11.118;2022-08-19T06:56:39;98836.38;;;22.27;85.14
49759;BME280;35654;46.080;11.118;2022-08-19T06:59:08;98836.78;;;22.29;84.32
49759;BME280;35654;46.080;11.118;2022-08-19T07:01:38;98836.88;;;22.40;83.48
49759;BME280;35654;46.080;11.118;2022-08-19T07:04:06;98836.72;;;22.66;81.56
49759;BME280;35654;46.080;11.118;2022-08-19T07:06:32;98822.88;;;22.80;81.50
49759;BME280;35654;46.080;11.118;2022-08-19T07:08:57;98817.66;;;22.79;80.56
49759;BME280;35654;46.080;11.118;2022-08-19T07:11:23;98813.13;;;22.60;80.85
49759;BME280;35654;46.080;11.118;2022-08-19T07:13:49;98809.06;;;22.47;80.62
49759;BME280;35654;46.080;11.118;2022-08-19T07:16:16;98813.41;;;22.48;81.76
49759;BME280;35654;46.080;11.118;2022-08-19T07:18:42;98809.81;;;22.47;80.52
49759;BME280;35654;46.080;11.118;2022-08-19T07:21:15;98812.16;;;22.42;81.96
49759;BME280;35654;46.080;11.118;2022-08-19T07:23:42;98820.69;;;22.12;83.96
49759;BME280;35654;46.080;11.118;2022-08-19T07:26:15;98813.50;;;22.08;83.83
49759;BME280;35654;46.080;11.118;2022-08-19T07:28:41;98820.16;;;21.96;83.71
49759;BME280;35654;46.080;11.118;2022-08-19T07:31:11;98813.94;;;22.13;83.70
49759;BME280;35654;46.080;11.118;2022-08-19T07:33:38;98824.28;;;22.13;82.13
49759;BME280;35654;46.080;11.118;2022-08-19T07:36:05;98820.69;;;22.12;82.72
49759;BME280;35654;46.080;11.118;2022-08-19T07:38:32;98822.41;;;22.24;82.30
49759;BME280;35654;46.080;11.118;2022-08-19T07:40:57;98830.44;;;22.32;81.57
49759;BME280;35654;46.080;11.118;2022-08-19T07:43:23;98828.22;;;22.52;79.01
49759;BME280;35654;46.080;11.118;2022-08-19T07:45:52;98842.88;;;22.42;79.83
49759;BME280;35654;46.080;11.118;2022-08-19T07:48:21;98837.28;;;22.38;80.27
49759;BME280;35654;46.080;11.118;2022-08-19T07:50:58;98842.41;;;22.36;78.73
49759;BME280;35654;46.080;11.118;2022-08-19T07:53:28;98846.28;;;22.21;80.51
49759;BME280;35654;46.080;11.118;2022-08-19T07:55:54;98843.19;;;22.30;81.05
49759;BME280;35654;46.080;11.118;2022-08-19T07:58:21;98843.19;;;22.30;79.48
49759;BME280;35654;46.080;11.118;2022-08-19T08:00:48;98835.28;;;22.39;79.69
49759;BME280;35654;46.080;11.118;2022-08-19T08:03:16;98829.16;;;22.67;79.04
49759;BME280;35654;46.080;11.118;2022-08-19T08:05:43;98828.47;;;22.87;77.83
49759;BME280;35654;46.080;11.118;2022-08-19T08:08:27;98827.78;;;23.04;76.42
49759;BME280;35654;46.080;11.118;2022-08-19T08:11:11;98826.22;;;23.10;76.22
49759;BME280;35654;46.080;11.118;2022-08-19T08:13:37;98822.25;;;23.15;75.96
49759;BME280;35654;46.080;11.118;2022-08-19T08:16:03;98819.94;;;23.35;75.57
49759;BME280;35654;46.080;11.118;2022-08-19T08:18:28;98814.06;;;23.54;74.56
49759;BME280;35654;46.080;11.118;2022-08-19T08:20:58;98816.50;;;23.73;73.43
49759;BME280;35654;46.080;11.118;2022-08-19T08:23:24;98808.97;;;23.84;73.46
49759;BME280;35654;46.080;11.118;2022-08-19T08:25:52;98807.78;;;23.92;72.30
49759;BME280;35654;46.080;11.118;2022-08-19T08:28:18;98814.97;;;23.97;71.65
49759;BME280;35654;46.080;11.118;2022-08-19T08:30:44;98812.16;;;24.04;70.62
49759;BME280;35654;46.080;11.118;2022-08-19T08:33:11;98807.41;;;24.01;70.25
49759;BME280;35654;46.080;11.118;2022-08-19T08:35:36;98807.44;;;24.11;69.85
49759;BME280;35654;46.080;11.118;2022-08-19T08:38:02;98803.44;;;24.37;68.92
49759;BME280;35654;46.080;11.118;2022-08-19T08:40:30;98804.63;;;24.11;69.14
49759;BME280;35654;46.080;11.118;2022-08-19T08:43:26;98800.25;;;24.28;68.50
49759;BME280;35654;46.080;11.118;2022-08-19T08:45:59;98805.84;;;24.53;68.69
49759;BME280;35654;46.080;11.118;2022-08-19T08:48:34;98806.63;;;24.64;67.17
49759;BME280;35654;46.080;11.118;2022-08-19T08:51:04;98816.22;;;24.73;66.42
49759;BME280;35654;46.080;11.118;2022-08-19T08:53:32;98819.41;;;24.68;67.20
49759;BME280;35654;46.080;11.118;2022-08-19T08:56:02;98825.41;;;24.63;68.22
49759;BME280;35654;46.080;11.118;2022-08-19T08:58:37;98839.00;;;24.61;69.34
49759;BME280;35654;46.080;11.118;2022-08-19T09:01:11;98844.63;;;24.22;70.96
49759;BME280;35654;46.080;11.118;2022-08-19T09:03:39;98853.78;;;24.26;70.05
49759;BME280;35654;46.080;11.118;2022-08-19T09:11:08;98842.94;;;23.97;71.47
49759;BME280;35654;46.080;11.118;2022-08-19T09:16:32;98857.00;;;24.14;68.89
49759;BME280;35654;46.080;11.118;2022-08-19T09:19:03;98855.69;;;23.84;70.76
49759;BME280;35654;46.080;11.118;2022-08-19T09:21:29;98856.06;;;23.75;70.94
49759;BME280;35654;46.080;11.118;2022-08-19T09:23:54;98851.59;;;23.56;72.67
49759;BME280;35654;46.080;11.118;2022-08-19T09:26:21;98853.59;;;23.59;72.20
49759;BME280;35654;46.080;11.118;2022-08-19T09:28:49;98864.09;;;23.84;70.50
49759;BME280;35654;46.080;11.118;2022-08-19T09:31:17;98858.88;;;23.82;70.27
49759;BME280;35654;46.080;11.118;2022-08-19T09:33:43;98858.53;;;23.98;70.16
49759;BME280;35654;46.080;11.118;2022-08-19T09:36:12;98863.38;;;24.11;70.61
49759;BME280;35654;46.080;11.118;2022-08-19T09:38:39;98843.81;;;24.64;69.49
49759;BME280;35654;46.080;11.118;2022-08-19T09:41:11;98830.59;;;24.97;66.45
49759;BME280;35654;46.080;11.118;2022-08-19T09:43:39;98805.22;;;25.39;64.50
49759;BME280;35654;46.080;11.118;2022-08-19T09:46:06;98790.41;;;25.45;63.55
49759;BME280;35654;46.080;11.118;2022-08-19T09:48:38;98777.88;;;25.68;63.77
49759;BME280;35654;46.080;11.118;2022-08-19T09:51:09;98770.75;;;25.56;63.63
49759;BME280;35654;46.080;11.118;2022-08-19T09:53:36;98792.78;;;25.43;64.45
49759;BME280;35654;46.080;11.118;2022-08-19T09:56:03;98811.63;;;25.39;66.00
49759;BME280;35654;46.080;11.118;2022-08-19T09:58:29;98808.00;;;25.57;64.88
49759;BME280;35654;46.080;11.118;2022-08-19T10:00:55;98813.00;;;25.93;63.25
49759;BME280;35654;46.080;11.118;2022-08-19T10:03:22;98805.25;;;26.12;62.22
49759;BME280;35654;46.080;11.118;2022-08-19T10:05:47;98796.31;;;26.27;59.61
49759;BME280;35654;46.080;11.118;2022-08-19T10:08:13;98788.59;;;26.38;60.23
49759;BME280;35654;46.080;11.118;2022-08-19T10:10:38;98774.47;;;27.27;56.29
49759;BME280;35654;46.080;11.118;2022-08-19T10:13:04;98768.22;;;27.46;55.15
49759;BME280;35654;46.080;11.118;2022-08-19T10:15:29;98770.84;;;27.60;54.02
49759;BME280;35654;46.080;11.118;2022-08-19T10:17:55;98758.09;;;27.52;54.72
49759;BME280;35654;46.080;11.118;2022-08-19T10:20:20;98757.38;;;27.11;56.04
49759;BME280;35654;46.080;11.118;2022-08-19T10:22:47;98768.06;;;26.89;57.28
49759;BME280;35654;46.080;11.118;2022-08-19T10:25:13;98763.97;;;26.16;59.53
49759;BME280;35654;46.080;11.118;2022-08-19T10:27:41;98757.19;;;26.02;61.30
49759;BME280;35654;46.080;11.118;2022-08-19T10:30:07;98747.59;;;26.00;61.40
49759;BME280;35654;46.080;11.118;2022-08-19T10:32:34;98735.78;;;25.71;62.10
49759;BME280;35654;46.080;11.118;2022-08-19T10:34:59;98731.69;;;25.83;60.79
49759;BME280;35654;46.080;11.118;2022-08-19T10:37:25;98732.75;;;26.03;59.76
49759;BME280;35654;46.080;11.118;2022-08-19T10:39:51;98730.06;;;25.89;60.50
49759;BME280;35654;46.080;11.118;2022-08-19T10:42:17;98731.81;;;25.69;61.17
49759;BME280;35654;46.080;11.118;2022-08-19T10:44:43;98734.66;;;25.62;61.62
49759;BME280;35654;46.080;11.118;2022-08-19T10:47:10;98736.13;;;25.80;61.72
49759;BME280;35654;46.080;11.118;2022-08-19T10:49:35;98733.38;;;25.73;62.80
49759;BME280;35654;46.080;11.118;2022-08-19T10:52:21;98730.66;;;26.18;59.90
49759;BME280;35654;46.080;11.118;2022-08-19T10:55:08;98734.00;;;25.98;59.93
49759;BME280;35654;46.080;11.118;2022-08-19T10:57:52;98728.34;;;26.02;59.29
49759;BME280;35654;46.080;11.118;2022-08-19T11:00:18;98731.06;;;26.16;59.12
49759;BME280;35654;46.080;11.118;2022-08-19T11:02:43;98725.13;;;26.07;58.15
49759;BME280;35654;46.080;11.118;2022-08-19T11:05:09;98723.38;;;25.72;59.23
49759;BME280;35654;46.080;11.118;2022-08-19T11:07:38;98724.44;;;25.89;60.22
49759;BME280;35654;46.080;11.118;2022-08-19T11:10:05;98723.97;;;26.01;57.81
49759;BME280;35654;46.080;11.118;2022-08-19T11:12:31;98718.44;;;25.90;59.36
49759;BME280;35654;46.080;11.118;2022-08-19T11:14:58;98710.66;;;26.16;58.01
49759;BME280;35654;46.080;11.118;2022-08-19T11:17:23;98723.22;;;26.41;56.28
49759;BME280;35654;46.080;11.118;2022-08-19T11:19:49;98711.16;;;26.44;56.69
49759;BME280;35654;46.080;11.118;2022-08-19T11:22:15;98711.22;;;26.37;57.27
49759;BME280;35654;46.080;11.118;2022-08-19T11:24:40;98710.13;;;26.65;56.53
49759;BME280;35654;46.080;11.118;2022-08-19T11:27:07;98709.34;;;26.65;56.39
49759;BME280;35654;46.080;11.118;2022-08-19T11:29:35;98706.66;;;26.54;56.97
49759;BME280;35654;46.080;11.118;2022-08-19T11:32:06;98712.59;;;26.59;56.80
49759;BME280;35654;46.080;11.118;2022-08-19T11:34:32;98706.59;;;26.95;55.47
49759;BME280;35654;46.080;11.118;2022-08-19T11:36:57;98710.91;;;27.03;54.97
49759;BME280;35654;46.080;11.118;2022-08-19T11:39:26;98703.59;;;27.39;55.03
49759;BME280;35654;46.080;11.118;2022-08-19T11:41:52;98706.03;;;27.10;56.08
49759;BME280;35654;46.080;11.118;2022-08-19T11:44:17;98707.56;;;27.15;56.16
49759;BME280;35654;46.080;11.118;2022-08-19T11:46:43;98703.88;;;27.22;55.05
49759;BME280;35654;46.080;11.118;2022-08-19T11:49:20;98706.06;;;27.07;54.95
49759;BME280;35654;46.080;11.118;2022-08-19T11:51:47;98696.81;;;26.73;56.14
49759;BME280;35654;46.080;11.118;2022-08-19T11:54:14;98696.94;;;26.99;55.92
49759;BME280;35654;46.080;11.118;2022-08-19T11:56:42;98689.09;;;26.84;56.65
49759;BME280;35654;46.080;11.118;2022-08-19T11:59:07;98694.84;;;27.03;56.09
49759;BME280;35654;46.080;11.118;2022-08-19T12:01:33;98689.75;;;27.25;55.24
49759;BME280;35654;46.080;11.118;2022-08-19T12:03:59;98682.31;;;27.11;55.12
49759;BME280;35654;46.080;11.118;2022-08-19T12:06:27;98676.50;;;26.95;56.08
49759;BME280;35654;46.080;11.118;2022-08-19T12:08:59;98681.28;;;26.98;56.15
49759;BME280;35654;46.080;11.118;2022-08-19T12:11:25;98684.56;;;27.24;53.72
49759;BME280;35654;46.080;11.118;2022-08-19T12:13:51;98685.72;;;27.56;52.68
49759;BME280;35654;46.080;11.118;2022-08-19T12:16:20;98681.56;;;27.64;52.91
49759;BME280;35654;46.080;11.118;2022-08-19T12:18:46;98677.28;;;27.56;53.25
49759;BME280;35654;46.080;11.118;2022-08-19T12:21:13;98675.16;;;27.34;53.06
49759;BME280;35654;46.080;11.118;2022-08-19T12:23:40;98674.91;;;27.25;53.40
49759;BME280;35654;46.080;11.118;2022-08-19T12:26:05;98674.34;;;27.06;54.05
49759;BME280;35654;46.080;11.118;2022-08-19T12:28:31;98669.38;;;26.87;54.21
49759;BME280;35654;46.080;11.118;2022-08-19T12:30:57;98669.59;;;27.00;53.70
49759;BME280;35654;46.080;11.118;2022-08-19T12:33:23;98657.94;;;27.32;52.38
49759;BME280;35654;46.080;11.118;2022-08-19T12:35:51;98659.16;;;27.61;51.61
49759;BME280;35654;46.080;11.118;2022-08-19T12:38:17;98660.53;;;27.72;51.99
49759;BME280;35654;46.080;11.118;2022-08-19T12:40:47;98646.53;;;27.92;51.32
49759;BME280;35654;46.080;11.118;2022-08-19T12:43:13;98649.72;;;28.41;50.87
49759;BME280;35654;46.080;11.118;2022-08-19T12:45:41;98641.84;;;29.30;47.97
49759;BME280;35654;46.080;11.118;2022-08-19T12:48:07;98627.88;;;29.59;46.60
49759;BME280;35654;46.080;11.118;2022-08-19T12:50:32;98616.34;;;30.47;43.92
49759;BME280;35654;46.080;11.118;2022-08-19T12:52:57;98614.78;;;30.87;43.23
49759;BME280;35654;46.080;11.118;2022-08-19T12:55:23;98622.22;;;30.40;43.04
49759;BME280;35654;46.080;11.118;2022-08-19T12:57:49;98626.16;;;29.81;45.57
49759;BME280;35654;46.080;11.118;2022-08-19T13:00:17;98635.63;;;29.55;46.12